Time;durP1;ratioP1;P1;durP2;ratioP2;P2;SDS_P1;SDS_P2;PMS_P1;PMS_P2;Temp;Humidity;BMP_temperature;BMP_pressure;BME280_temperature;BME280_humidity;BME280_pressure;Samples;Min_cycle;Max_cycle;Signal;HPM_P1;HPM_P2
2023/12/30 00:00:05;;;;;;;17.30;12.30;;;;;;;19.27;32.87;100199.09;105609;1254;60610;-52
2023/12/30 00:02:47;;;;;;;10.90;4.90;;;;;;;19.31;32.80;100201.86;106293;1254;63684;-51
2023/12/30 00:05:16;;;;;;;15.90;11.90;;;;;;;19.30;32.79;100201.02;105508;1257;60603;-51
2023/12/30 00:07:44;;;;;;;12.30;5.30;;;;;;;19.31;32.79;100204.02;106406;1257;64229;-50
2023/12/30 00:10:12;;;;;;;15.80;11.20;;;;;;;19.25;32.82;100204.35;105581;1254;60468;-50
2023/12/30 00:12:39;;;;;;;17.40;12.20;;;;;;;19.23;32.75;100204.21;105521;1254;60525;-50
2023/12/30 00:15:08;;;;;;;18.20;12.60;;;;;;;19.21;32.85;100201.13;105708;1254;72072;-52
2023/12/30 00:17:35;;;;;;;10.30;4.90;;;;;;;19.16;32.79;100200.43;105683;1254;61986;-50
2023/12/30 00:20:04;;;;;;;17.70;11.80;;;;;;;19.17;32.79;100198.73;105553;1253;62578;-51
2023/12/30 00:22:32;;;;;;;15.10;10.90;;;;;;;19.21;32.83;100197.98;105985;1257;60565;-51
2023/12/30 00:24:59;;;;;;;9.10;4.80;;;;;;;19.24;32.84;100201.98;106094;1252;60549;-52
2023/12/30 00:27:27;;;;;;;18.50;12.10;;;;;;;19.23;32.82;100202.56;105416;1254;65134;-50
2023/12/30 00:29:55;;;;;;;17.10;12.60;;;;;;;19.22;32.77;100201.28;105941;1259;60427;-48
2023/12/30 00:32:22;;;;;;;10.10;6.10;;;;;;;19.21;32.80;100201.02;105998;1257;64947;-50
2023/12/30 00:34:50;;;;;;;18.30;12.60;;;;;;;19.21;32.75;100198.02;105212;1257;299435;-53
2023/12/30 00:38:11;;;;;;;11.90;4.60;;;;;;;17.17;36.28;100201.42;102348;1297;601531;-53
2023/12/30 00:40:39;;;;;;;22.00;14.20;;;;;;;18.76;33.52;100198.36;104678;1270;59254;-52
2023/12/30 00:43:07;;;;;;;12.10;6.80;;;;;;;18.88;33.27;100194.99;104422;1283;59333;-53
2023/12/30 00:45:34;;;;;;;21.30;14.70;;;;;;;18.94;33.14;100195.66;104682;1271;63365;-54
2023/12/30 00:48:02;;;;;;;20.20;14.80;;;;;;;19.02;32.94;100193.73;104373;1267;60339;-54
2023/12/30 00:50:30;;;;;;;14.00;6.00;;;;;;;19.07;32.92;100194.83;104920;1270;63684;-52
2023/12/30 00:52:57;;;;;;;20.20;14.40;;;;;;;19.09;32.93;100194.67;105131;1263;242950;-46
2023/12/30 00:55:26;;;;;;;21.40;13.50;;;;;;;19.10;32.81;100198.23;104659;1270;59434;-49
2023/12/30 00:57:54;;;;;;;19.20;12.60;;;;;;;19.08;32.75;100204.36;104562;1264;63344;-51
2023/12/30 01:00:21;;;;;;;10.70;4.70;;;;;;;19.01;32.81;100210.20;104542;1269;60357;-49
2023/12/30 01:02:49;;;;;;;14.80;11.20;;;;;;;18.93;32.92;100215.54;104573;1265;62548;-50
2023/12/30 01:05:17;;;;;;;16.40;11.90;;;;;;;18.86;32.95;100217.11;104607;1264;59742;-48
2023/12/30 01:07:44;;;;;;;12.50;4.70;;;;;;;18.81;33.00;100216.11;104738;1264;59689;-45
2023/12/30 01:10:12;;;;;;;13.60;5.30;;;;;;;18.81;33.17;100215.97;104706;1264;73001;-48
2023/12/30 01:12:40;;;;;;;18.40;11.40;;;;;;;18.85;33.09;100216.15;104541;1270;61335;-48
2023/12/30 01:15:08;;;;;;;8.70;3.80;;;;;;;18.85;33.16;100212.25;104482;1267;65974;-49
2023/12/30 01:17:36;;;;;;;16.60;11.60;;;;;;;18.82;33.17;100211.33;104884;1270;59797;-48
2023/12/30 01:20:04;;;;;;;11.90;5.70;;;;;;;18.78;33.22;100209.02;105081;1269;59590;-49
2023/12/30 01:22:35;;;;;;;17.10;12.40;;;;;;;18.75;33.27;100211.38;104960;1264;64587;-49
2023/12/30 01:25:03;;;;;;;13.90;5.10;;;;;;;18.71;33.16;100207.95;105251;1269;60157;-49
2023/12/30 01:27:31;;;;;;;16.50;11.50;;;;;;;18.66;33.22;100207.52;105376;1264;63797;-50
2023/12/30 01:29:58;;;;;;;10.60;4.70;;;;;;;18.61;33.33;100207.04;104835;1261;59688;-50
2023/12/30 01:32:26;;;;;;;16.80;11.70;;;;;;;18.58;33.22;100205.61;104814;1267;59728;-49
2023/12/30 01:34:53;;;;;;;16.30;10.90;;;;;;;18.54;33.42;100203.56;104763;1260;62864;-50
2023/12/30 01:37:21;;;;;;;9.50;4.40;;;;;;;18.65;33.14;100201.58;104746;1261;61511;-50
2023/12/30 01:39:49;;;;;;;10.00;3.80;;;;;;;18.71;33.17;100202.15;104750;1266;63837;-49
2023/12/30 01:42:16;;;;;;;15.70;10.70;;;;;;;18.72;33.12;100200.95;104955;1266;59649;-49
2023/12/30 01:44:44;;;;;;;16.60;11.10;;;;;;;18.72;33.12;100204.82;105051;1260;59750;-49
2023/12/30 01:47:12;;;;;;;16.80;11.90;;;;;;;18.70;33.15;100205.05;104845;1266;64198;-53
2023/12/30 01:49:39;;;;;;;9.10;4.50;;;;;;;18.66;33.11;100205.07;104840;1267;60255;-50
2023/12/30 01:52:07;;;;;;;17.10;11.70;;;;;;;18.63;33.15;100207.23;104768;1269;62673;-49
2023/12/30 01:54:35;;;;;;;9.10;4.30;;;;;;;18.57;33.26;100203.70;104760;1264;59641;-49
2023/12/30 01:57:02;;;;;;;16.90;12.20;;;;;;;18.54;33.30;100205.04;104824;1267;59636;-50
2023/12/30 01:59:30;;;;;;;13.80;5.20;;;;;;;18.51;33.29;100207.98;104759;1261;64213;-50
2023/12/30 02:01:58;;;;;;;17.30;13.00;;;;;;;18.50;33.36;100207.80;104657;1267;60295;-48
2023/12/30 02:04:25;;;;;;;11.70;4.50;;;;;;;18.47;33.45;100209.92;105437;1261;63739;-49
2023/12/30 02:06:53;;;;;;;14.40;10.10;;;;;;;18.47;33.33;100204.15;104783;1263;59833;-49
2023/12/30 02:09:21;;;;;;;8.70;3.90;;;;;;;18.53;33.26;100199.74;104881;1265;59750;-49
2023/12/30 02:11:48;;;;;;;15.60;11.60;;;;;;;18.61;33.16;100196.38;104756;1261;64655;-49
2023/12/30 02:14:29;;;;;;;9.40;4.50;;;;;;;18.65;33.01;100198.70;104766;1267;61311;-49
2023/12/30 02:16:57;;;;;;;16.90;11.70;;;;;;;18.58;33.17;100202.92;105318;1266;63675;-50
2023/12/30 02:19:25;;;;;;;9.30;4.10;;;;;;;18.53;33.21;100201.17;105949;1254;60892;-51
2023/12/30 02:21:53;;;;;;;16.30;11.00;;;;;;;18.49;33.22;100202.91;105222;1260;59673;-51
2023/12/30 02:24:20;;;;;;;8.80;4.40;;;;;;;18.46;33.21;100204.21;105334;1254;62832;-49
2023/12/30 02:26:48;;;;;;;16.70;10.60;;;;;;;18.41;33.41;100204.77;105443;1259;60116;-50
2023/12/30 02:29:16;;;;;;;10.80;3.40;;;;;;;18.32;33.30;100204.86;105323;1255;63684;-49
2023/12/30 02:31:46;;;;;;;15.80;10.70;;;;;;;18.32;33.30;100203.14;105253;1255;59670;-49
2023/12/30 02:34:15;;;;;;;11.40;3.80;;;;;;;18.30;33.40;100202.26;105401;1260;59665;-49
2023/12/30 02:36:44;;;;;;;15.30;10.30;;;;;;;18.23;33.55;100201.31;105643;1254;64600;-49
2023/12/30 02:39:12;;;;;;;9.70;4.20;;;;;;;18.15;33.77;100200.76;105355;1259;60163;-49
2023/12/30 02:41:39;;;;;;;8.90;4.80;;;;;;;18.12;33.81;100206.44;105478;1254;62469;-49
2023/12/30 02:44:07;;;;;;;12.50;9.90;;;;;;;18.08;33.67;100204.39;105743;1260;59762;-50
2023/12/30 02:46:34;;;;;;;11.40;4.10;;;;;;;18.04;33.79;100206.52;105317;1259;60169;-50
2023/12/30 02:49:04;;;;;;;17.20;11.00;;;;;;;18.00;33.86;100207.48;105756;1256;64118;-50
2023/12/30 02:51:32;;;;;;;9.00;3.50;;;;;;;17.96;33.92;100205.40;106442;1256;61363;-48
2023/12/30 02:54:00;;;;;;;15.10;9.80;;;;;;;17.97;33.83;100210.99;105319;1254;64315;-50
2023/12/30 02:56:28;;;;;;;7.80;2.90;;;;;;;18.01;33.88;100209.73;105282;1254;59762;-49
2023/12/30 02:59:00;;;;;;;13.30;9.70;;;;;;;18.10;33.82;100207.25;105326;1260;59638;-50
2023/12/30 03:01:31;;;;;;;18.00;10.50;;;;;;;18.18;33.84;100203.48;105158;1254;65669;-50
2023/12/30 03:03:59;;;;;;;10.00;3.20;;;;;;;18.20;33.70;100205.71;106004;1259;60229;-49
2023/12/30 03:06:27;;;;;;;14.80;11.30;;;;;;;18.20;33.80;100206.45;105783;1256;63703;-50
2023/12/30 03:08:55;;;;;;;7.70;4.00;;;;;;;18.18;33.61;100206.49;105973;1258;59711;-49
2023/12/30 03:11:23;;;;;;;17.50;11.20;;;;;;;18.16;33.66;100206.87;105304;1255;59925;-51
2023/12/30 03:13:51;;;;;;;12.60;6.10;;;;;;;18.15;33.72;100205.83;105416;1254;62861;-50
2023/12/30 03:16:19;;;;;;;16.00;10.50;;;;;;;18.11;33.78;100207.64;105275;1260;60367;-51
2023/12/30 03:18:46;;;;;;;10.10;4.90;;;;;;;18.07;33.82;100202.77;105270;1257;63743;-51
2023/12/30 03:21:16;;;;;;;8.40;3.50;;;;;;;18.08;33.78;100195.95;105286;1259;60386;-49
2023/12/30 03:23:45;;;;;;;14.00;9.90;;;;;;;18.14;33.75;100189.39;105248;1260;60460;-49
2023/12/30 03:26:13;;;;;;;8.70;3.30;;;;;;;18.22;33.56;100189.23;105459;1257;64102;-49
2023/12/30 03:28:40;;;;;;;14.80;10.50;;;;;;;18.24;33.54;100193.71;105465;1254;61331;-49
2023/12/30 03:31:08;;;;;;;8.20;3.90;;;;;;;18.24;33.62;100198.38;105271;1254;63732;-49
2023/12/30 03:33:35;;;;;;;15.30;10.00;;;;;;;18.20;33.61;100202.71;105366;1254;59915;-49
2023/12/30 03:36:04;;;;;;;7.50;3.40;;;;;;;18.17;33.66;100200.52;105316;1254;59669;-50
2023/12/30 03:38:32;;;;;;;8.30;4.90;;;;;;;18.17;33.55;100204.94;105787;1254;64075;-49
2023/12/30 03:40:59;;;;;;;15.20;10.00;;;;;;;18.15;33.58;100203.16;105327;1254;61991;-50
2023/12/30 03:43:27;;;;;;;10.80;4.50;;;;;;;18.11;33.55;100201.13;105942;1254;63665;-49
2023/12/30 03:45:55;;;;;;;15.90;9.50;;;;;;;18.11;33.58;100196.69;105431;1254;59755;-50
2023/12/30 03:48:23;;;;;;;8.10;2.90;;;;;;;18.14;33.59;100192.38;106150;1254;59828;-50
2023/12/30 03:50:51;;;;;;;13.10;9.20;;;;;;;18.21;33.52;100188.24;105437;1254;62933;-50
2023/12/30 03:53:19;;;;;;;8.60;4.10;;;;;;;18.26;33.55;100188.50;105319;1259;60086;-51
2023/12/30 03:55:46;;;;;;;10.20;5.00;;;;;;;18.29;33.52;100193.14;105376;1254;62539;-51
2023/12/30 03:58:15;;;;;;;14.50;9.80;;;;;;;18.28;33.36;100198.29;105445;1254;60037;-50
2023/12/30 04:00:42;;;;;;;10.50;4.20;;;;;;;18.24;33.26;100199.27;105333;1253;59657;-51
2023/12/30 04:03:10;;;;;;;14.30;10.30;;;;;;;18.20;33.38;100198.13;105501;1252;62868;-50
2023/12/30 04:05:38;;;;;;;8.80;4.20;;;;;;;18.11;33.36;100194.16;105365;1258;61312;-52
2023/12/30 04:08:06;;;;;;;13.90;9.80;;;;;;;18.02;33.47;100191.96;105304;1254;64290;-49
2023/12/30 04:10:35;;;;;;;11.00;4.40;;;;;;;17.96;33.73;100194.25;105271;1257;59729;-53
2023/12/30 04:13:03;;;;;;;14.80;10.60;;;;;;;17.99;33.61;100195.16;105864;1253;59723;-48
2023/12/30 04:15:31;;;;;;;10.00;5.10;;;;;;;18.02;33.63;100195.52;106627;1253;62938;-47
2023/12/30 04:17:59;;;;;;;16.90;11.60;;;;;;;18.05;33.75;100194.48;105853;1254;61036;-46
2023/12/30 04:20:26;;;;;;;9.20;3.60;;;;;;;18.06;33.71;100188.95;105326;1260;62622;-47
2023/12/30 04:22:54;;;;;;;14.30;10.60;;;;;;;18.06;33.71;100191.97;105323;1253;60913;-46
2023/12/30 04:25:22;;;;;;;10.70;5.50;;;;;;;18.02;33.65;100189.29;105579;1254;59713;-52
2023/12/30 04:27:50;;;;;;;15.50;11.00;;;;;;;18.00;33.65;100187.61;105841;1254;64103;-50
2023/12/30 04:30:17;;;;;;;9.30;5.20;;;;;;;17.96;33.54;100191.89;105410;1254;69227;-50
2023/12/30 04:32:45;;;;;;;9.40;4.50;;;;;;;17.91;33.66;100189.67;106123;1259;62593;-50
2023/12/30 04:35:13;;;;;;;14.30;10.90;;;;;;;17.86;33.96;100191.10;105581;1257;59921;-50
2023/12/30 04:37:41;;;;;;;8.10;3.70;;;;;;;17.80;33.93;100194.58;105380;1254;59671;-49
2023/12/30 04:40:09;;;;;;;13.20;9.30;;;;;;;17.83;33.98;100191.93;105448;1252;64620;-49
2023/12/30 04:42:36;;;;;;;8.80;3.20;;;;;;;17.91;33.87;100193.98;105654;1259;60180;-48
2023/12/30 04:45:04;;;;;;;9.90;3.60;;;;;;;17.97;33.79;100201.04;105328;1254;63707;-50
2023/12/30 04:47:32;;;;;;;16.00;11.10;;;;;;;18.00;33.81;100203.59;105912;1254;60116;-50
2023/12/30 04:49:59;;;;;;;9.90;4.00;;;;;;;17.98;33.76;100207.92;105501;1253;60498;-51
2023/12/30 04:52:27;;;;;;;7.10;3.70;;;;;;;17.97;33.77;100208.56;105422;1254;65429;-50
2023/12/30 04:54:55;;;;;;;17.20;12.10;;;;;;;17.95;33.74;100204.96;105964;1254;61686;-50
2023/12/30 04:57:23;;;;;;;13.20;4.90;;;;;;;17.89;33.79;100204.51;106024;1257;63710;-51
2023/12/30 04:59:51;;;;;;;15.80;11.30;;;;;;;17.84;33.79;100206.20;105272;1254;60492;-50
2023/12/30 05:02:19;;;;;;;8.80;4.40;;;;;;;17.81;33.89;100207.08;105358;1254;61604;-50
2023/12/30 05:04:46;;;;;;;7.60;2.90;;;;;;;17.83;33.90;100206.67;105328;1252;63992;-50
2023/12/30 05:07:14;;;;;;;14.60;10.70;;;;;;;17.90;33.73;100203.88;105345;1254;61478;-49
2023/12/30 05:09:42;;;;;;;10.70;4.50;;;;;;;17.94;33.72;100200.36;105346;1254;63768;-49
2023/12/30 05:12:09;;;;;;;16.80;12.10;;;;;;;17.95;33.67;100203.60;105497;1259;60424;-52
2023/12/30 05:14:37;;;;;;;9.10;4.00;;;;;;;17.90;33.73;100200.41;105488;1254;60498;-51
2023/12/30 05:17:04;;;;;;;15.10;11.00;;;;;;;17.88;33.72;100198.36;105773;1254;64916;-54
2023/12/30 05:19:32;;;;;;;9.30;4.40;;;;;;;17.85;33.73;100195.46;105293;1258;60430;-53
2023/12/30 05:22:00;;;;;;;10.30;4.50;;;;;;;17.77;33.68;100193.20;105309;1258;62432;-54
2023/12/30 05:24:28;;;;;;;15.50;11.60;;;;;;;17.68;33.87;100190.36;105796;1253;60514;-52
2023/12/30 05:26:55;;;;;;;8.30;3.80;;;;;;;17.59;33.93;100185.41;105315;1259;60368;-54
2023/12/30 05:29:23;;;;;;;18.40;10.60;;;;;;;17.60;34.02;100188.76;105327;1254;63655;-53
2023/12/30 05:31:51;;;;;;;11.50;4.70;;;;;;;17.59;34.06;100188.29;105359;1254;61892;-52
2023/12/30 05:34:19;;;;;;;11.00;5.00;;;;;;;17.64;34.02;100193.23;105380;1254;63807;-47
2023/12/30 05:36:46;;;;;;;8.80;4.20;;;;;;;17.67;33.89;100195.58;106064;1254;60562;-57
2023/12/30 05:39:14;;;;;;;14.70;10.60;;;;;;;17.62;33.99;100196.67;105340;1254;60511;-56
2023/12/30 05:41:42;;;;;;;15.70;11.20;;;;;;;17.59;34.03;100195.75;105449;1254;67859;-61
2023/12/30 05:44:10;;;;;;;9.70;4.20;;;;;;;17.57;34.20;100196.35;105309;1254;61387;-60
2023/12/30 05:46:37;;;;;;;11.30;4.40;;;;;;;17.55;34.27;100200.29;105285;1254;63887;-60
2023/12/30 05:49:05;;;;;;;18.90;12.10;;;;;;;17.49;34.37;100201.36;105366;1259;60559;-59
2023/12/30 05:51:33;;;;;;;7.70;3.10;;;;;;;17.38;34.32;100204.98;105316;1253;60857;-60
2023/12/30 05:54:01;;;;;;;12.10;5.30;;;;;;;17.40;34.41;100209.62;105776;1254;65398;-61
2023/12/30 05:56:28;;;;;;;10.70;6.00;;;;;;;17.44;34.41;100212.16;105318;1254;61515;-65
2023/12/30 05:58:56;;;;;;;19.00;13.40;;;;;;;17.47;34.34;100209.16;105360;1254;63736;-52
2023/12/30 06:01:24;;;;;;;10.20;4.80;;;;;;;17.49;34.47;100205.23;105200;1254;60482;-48
2023/12/30 06:03:51;;;;;;;10.10;4.60;;;;;;;17.50;34.45;100203.13;105307;1259;60497;-48
2023/12/30 06:06:20;;;;;;;17.30;8.80;;;;;;;17.49;34.52;100201.01;105140;1254;64924;-54
2023/12/30 06:08:47;;;;;;;67.80;46.00;;;;;;;17.49;34.41;100204.10;106932;1254;61355;-51
2023/12/30 06:11:15;;;;;;;29.10;10.40;;;;;;;17.52;34.51;100206.52;105284;1257;63765;-50
2023/12/30 06:13:42;;;;;;;22.20;10.00;;;;;;;17.49;34.65;100207.53;105472;1254;60501;-48
2023/12/30 06:16:10;;;;;;;25.40;15.80;;;;;;;17.48;34.62;100210.15;105061;1254;60546;-47
2023/12/30 06:18:38;;;;;;;20.50;9.00;;;;;;;17.58;34.49;100211.52;109201;1254;63884;-46
2023/12/30 06:21:06;;;;;;;25.20;11.00;;;;;;;17.71;34.38;100213.59;109194;1252;62221;-52
2023/12/30 06:23:34;;;;;;;48.40;31.40;;;;;;;17.82;34.38;100218.95;109185;1253;71480;-54
2023/12/30 06:26:01;;;;;;;29.40;14.60;;;;;;;17.90;34.29;100219.67;109192;1254;58631;-50
2023/12/30 06:28:29;;;;;;;22.20;15.00;;;;;;;17.94;34.05;100218.95;109212;1253;58601;-51
2023/12/30 06:30:57;;;;;;;17.90;7.30;;;;;;;17.95;34.15;100215.85;109217;1254;65901;-51
2023/12/30 06:33:25;;;;;;;35.30;22.20;;;;;;;17.98;34.10;100215.27;109223;1253;61456;-54
2023/12/30 06:35:53;;;;;;;12.70;5.80;;;;;;;17.99;34.10;100210.88;109221;1254;62634;-49
2023/12/30 06:38:20;;;;;;;18.10;13.10;;;;;;;18.00;34.09;100213.86;106122;1254;60628;-59
2023/12/30 06:40:48;;;;;;;30.20;18.80;;;;;;;17.98;34.16;100217.11;105229;1254;60607;-56
2023/12/30 06:43:16;;;;;;;11.00;4.90;;;;;;;18.04;34.03;100218.44;105215;1253;63694;-56
2023/12/30 06:45:44;;;;;;;18.60;12.30;;;;;;;18.10;33.88;100217.13;105311;1254;61509;-55
2023/12/30 06:48:12;;;;;;;13.50;6.50;;;;;;;18.14;33.99;100219.73;105424;1256;62416;-57
2023/12/30 06:50:39;;;;;;;17.90;12.00;;;;;;;18.15;33.84;100220.45;105480;1254;60447;-56
2023/12/30 06:53:07;;;;;;;15.40;6.10;;;;;;;18.13;33.85;100221.07;105533;1257;60892;-57
2023/12/30 06:55:35;;;;;;;17.60;12.60;;;;;;;18.16;34.01;100223.29;105546;1254;63695;-56
2023/12/30 06:58:13;;;;;;;10.00;4.60;;;;;;;18.17;33.93;100224.70;105391;1254;61547;-56
2023/12/30 07:00:41;;;;;;;21.60;15.10;;;;;;;18.15;33.95;100225.28;105570;1254;64164;-57
2023/12/30 07:03:09;;;;;;;13.80;5.90;;;;;;;18.14;33.97;100222.73;105214;1253;60533;-56
2023/12/30 07:05:37;;;;;;;10.10;4.60;;;;;;;18.22;33.89;100220.75;105262;1254;60473;-59
2023/12/30 07:08:05;;;;;;;20.90;13.30;;;;;;;18.29;33.78;100220.33;105286;1254;63677;-60
2023/12/30 07:10:33;;;;;;;28.60;16.90;;;;;;;18.36;33.80;100220.55;105736;1254;61451;-58
2023/12/30 07:13:03;;;;;;;15.70;6.10;;;;;;;18.42;33.68;100221.64;105549;1254;63714;-58
2023/12/30 07:15:31;;;;;;;17.10;7.00;;;;;;;18.43;33.64;100220.30;105355;1254;60491;-58
2023/12/30 07:17:59;;;;;;;31.10;21.00;;;;;;;18.44;33.70;100226.77;105261;1259;60426;-58
2023/12/30 07:20:27;;;;;;;11.90;5.10;;;;;;;18.45;33.78;100229.52;105807;1254;65503;-56
2023/12/30 07:22:55;;;;;;;32.60;21.70;;;;;;;18.45;33.75;100232.51;105269;1254;61381;-59
2023/12/30 07:25:22;;;;;;;42.30;19.20;;;;;;;18.47;33.62;100231.39;105336;1254;63710;-58
2023/12/30 07:27:51;;;;;;;22.60;9.30;;;;;;;18.58;33.55;100231.91;105209;1254;60471;-58
2023/12/30 07:30:18;;;;;;;32.90;24.00;;;;;;;18.67;33.57;100232.73;105353;1259;60357;-59
2023/12/30 07:32:46;;;;;;;22.40;15.50;;;;;;;18.77;33.37;100237.45;105394;1254;63643;-59
2023/12/30 07:35:14;;;;;;;15.80;6.30;;;;;;;18.85;33.20;100233.57;105499;1254;61743;-56
2023/12/30 07:37:41;;;;;;;26.60;19.80;;;;;;;18.89;33.27;100234.92;105394;1253;62554;-59
2023/12/30 07:40:09;;;;;;;23.70;16.50;;;;;;;18.93;33.28;100234.98;105458;1254;60491;-57
2023/12/30 07:42:37;;;;;;;15.00;6.80;;;;;;;18.94;33.16;100231.09;105652;1254;61289;-57
2023/12/30 07:45:06;;;;;;;42.90;35.00;;;;;;;18.93;33.19;100223.63;105513;1254;64929;-58
2023/12/30 07:47:34;;;;;;;12.20;6.10;;;;;;;18.93;33.25;100227.64;105629;1254;61331;-58
2023/12/30 07:50:03;;;;;;;20.10;13.30;;;;;;;19.04;33.25;100225.67;105259;1253;62446;-58
2023/12/30 07:52:30;;;;;;;22.40;15.70;;;;;;;19.21;33.09;100228.21;105741;1258;60459;-56
2023/12/30 07:54:58;;;;;;;12.10;5.00;;;;;;;19.31;32.93;100225.81;105764;1254;60514;-60
2023/12/30 07:57:26;;;;;;;19.80;13.20;;;;;;;19.40;32.78;100226.02;105246;1254;65390;-59
2023/12/30 07:59:55;;;;;;;18.60;12.10;;;;;;;19.44;32.68;100228.33;105974;1254;61362;-59
2023/12/30 08:02:23;;;;;;;15.20;5.00;;;;;;;19.50;32.59;100232.52;105311;1254;63717;-54
2023/12/30 08:04:50;;;;;;;15.80;11.80;;;;;;;19.56;32.56;100230.16;105287;1254;60512;-60
2023/12/30 08:07:18;;;;;;;15.40;10.50;;;;;;;19.59;32.50;100230.62;105316;1258;60374;-62
2023/12/30 08:09:46;;;;;;;59.40;30.30;;;;;;;19.67;32.35;100228.77;105394;1254;65393;-62
2023/12/30 08:12:14;;;;;;;60.70;32.90;;;;;;;19.79;32.28;100229.46;105280;1254;61339;-63
2023/12/30 08:14:41;;;;;;;36.20;15.50;;;;;;;19.84;32.22;100226.45;105515;1254;62768;-59
2023/12/30 08:17:09;;;;;;;40.50;23.50;;;;;;;19.92;32.24;100230.31;105171;1254;60857;-59
2023/12/30 08:19:36;;;;;;;35.60;20.40;;;;;;;19.93;32.14;100226.59;105278;1257;60329;-60
2023/12/30 08:22:04;;;;;;;28.30;18.80;;;;;;;19.92;32.13;100222.14;105243;1254;65380;-58
2023/12/30 08:24:32;;;;;;;21.50;13.20;;;;;;;19.96;32.11;100220.48;105337;1259;60495;-58
2023/12/30 08:26:59;;;;;;;28.10;16.60;;;;;;;20.02;32.08;100221.76;105294;1254;63674;-58
2023/12/30 08:29:27;;;;;;;23.10;14.90;;;;;;;20.08;32.10;100215.00;105354;1254;60516;-56
2023/12/30 08:31:55;;;;;;;11.00;5.70;;;;;;;20.16;31.91;100211.44;105772;1258;60433;-59
2023/12/30 08:34:27;;;;;;;20.20;12.50;;;;;;;20.25;31.87;100208.56;105393;1254;64923;-59
2023/12/30 08:36:55;;;;;;;19.40;12.70;;;;;;;20.30;31.79;100208.29;105860;1257;60469;-57
2023/12/30 08:39:23;;;;;;;15.40;10.80;;;;;;;20.33;31.70;100210.33;105938;1256;62481;-56
2023/12/30 08:41:52;;;;;;;20.70;12.40;;;;;;;20.35;31.58;100208.55;105290;1254;60587;-58
2023/12/30 08:44:22;;;;;;;21.50;14.50;;;;;;;20.37;31.59;100199.63;106053;1257;60457;-57
2023/12/30 08:46:49;;;;;;;23.60;14.40;;;;;;;20.37;31.62;100195.55;105233;1259;64912;-58
2023/12/30 08:49:17;;;;;;;16.20;11.70;;;;;;;20.41;31.55;100193.83;106201;1254;61306;-57
2023/12/30 08:51:45;;;;;;;19.00;11.70;;;;;;;20.41;31.67;100197.99;105216;1258;62611;-57
2023/12/30 08:54:12;;;;;;;14.00;4.50;;;;;;;20.43;31.78;100198.37;105297;1254;60655;-58
2023/12/30 08:56:40;;;;;;;17.50;10.50;;;;;;;20.53;31.73;100191.75;105470;1253;60523;-58
2023/12/30 08:59:08;;;;;;;16.50;10.30;;;;;;;20.63;31.49;100186.39;105358;1258;65732;-57
2023/12/30 09:01:36;;;;;;;14.50;9.80;;;;;;;20.72;31.55;100185.31;105324;1254;61419;-56
2023/12/30 09:04:04;;;;;;;17.00;11.80;;;;;;;20.80;31.33;100184.60;105733;1254;63759;-59
2023/12/30 09:06:32;;;;;;;14.80;11.30;;;;;;;20.83;31.20;100181.54;105866;1259;61908;-57
2023/12/30 09:08:59;;;;;;;14.40;10.40;;;;;;;20.84;31.17;100178.78;105420;1256;60617;-58
2023/12/30 09:11:27;;;;;;;17.20;11.30;;;;;;;20.88;31.16;100178.11;105488;1254;64959;-56
2023/12/30 09:13:55;;;;;;;14.40;9.50;;;;;;;20.93;31.14;100180.85;105430;1254;61391;-59
2023/12/30 09:16:22;;;;;;;16.30;11.10;;;;;;;20.93;31.12;100174.42;105216;1259;63749;-56
2023/12/30 09:18:50;;;;;;;15.60;10.60;;;;;;;20.94;31.16;100174.77;105336;1257;60431;-56
2023/12/30 09:21:18;;;;;;;14.30;10.40;;;;;;;20.95;31.13;100168.48;106098;1258;60457;-58
2023/12/30 09:23:45;;;;;;;13.40;9.70;;;;;;;21.02;31.20;100161.91;105298;1257;64900;-59
2023/12/30 09:26:15;;;;;;;17.40;10.40;;;;;;;21.11;31.09;100159.44;105281;1254;61849;-57
2023/12/30 09:28:43;;;;;;;13.90;9.70;;;;;;;21.17;31.05;100158.86;105507;1259;63709;-60
2023/12/30 09:31:11;;;;;;;16.40;10.80;;;;;;;21.20;30.83;100153.64;105488;1254;60861;-55
2023/12/30 09:33:39;;;;;;;16.50;11.00;;;;;;;21.23;31.10;100159.23;105448;1259;60350;-57
2023/12/30 09:36:07;;;;;;;21.60;14.50;;;;;;;21.26;31.04;100160.73;105606;1256;63727;-57
2023/12/30 09:38:35;;;;;;;26.50;17.40;;;;;;;21.25;30.95;100158.86;105673;1254;60441;-58
2023/12/30 09:41:03;;;;;;;27.70;16.70;;;;;;;21.24;30.96;100156.55;105475;1257;63651;-55
2023/12/30 09:43:30;;;;;;;32.40;18.80;;;;;;;21.24;31.04;100154.98;105336;1254;60524;-55
2023/12/30 09:45:58;;;;;;;28.60;19.50;;;;;;;21.25;31.04;100149.21;105409;1254;60555;-57
2023/12/30 09:48:28;;;;;;;41.30;24.40;;;;;;;21.29;30.91;100143.81;105792;1254;63651;-59
2023/12/30 09:50:56;;;;;;;55.30;29.60;;;;;;;21.34;30.90;100139.67;105291;1254;61829;-47
2023/12/30 09:53:24;;;;;;;43.80;25.80;;;;;;;21.47;30.93;100142.52;105389;1254;63748;-47
2023/12/30 09:55:52;;;;;;;39.20;22.40;;;;;;;21.56;30.68;100141.18;105489;1258;60581;-47
2023/12/30 09:58:21;;;;;;;42.00;26.30;;;;;;;21.60;30.62;100137.41;106076;1257;60754;-47
2023/12/30 10:00:50;;;;;;;81.70;49.30;;;;;;;21.63;30.50;100136.88;105554;1254;64939;-46
2023/12/30 10:03:18;;;;;;;56.10;26.90;;;;;;;21.69;30.51;100133.43;105463;1253;61419;-46
2023/12/30 10:05:47;;;;;;;24.70;17.80;;;;;;;21.70;30.49;100126.85;105413;1254;63785;-46
2023/12/30 10:08:15;;;;;;;48.50;23.80;;;;;;;21.73;30.45;100123.35;105592;1254;60377;-45
2023/12/30 10:10:47;;;;;;;34.00;17.70;;;;;;;21.74;30.39;100124.42;105430;1259;60718;-45
2023/12/30 10:13:17;;;;;;;31.50;17.70;;;;;;;21.76;30.33;100123.08;105671;1254;63664;-47
2023/12/30 10:15:45;;;;;;;38.90;20.60;;;;;;;21.78;30.28;100124.65;105541;1254;61006;-47
2023/12/30 10:18:15;;;;;;;26.10;14.90;;;;;;;21.78;30.21;100120.36;105448;1259;62502;-46
2023/12/30 10:20:44;;;;;;;27.50;15.70;;;;;;;21.87;30.27;100122.52;105572;1254;60467;-45
2023/12/30 10:23:12;;;;;;;21.80;14.20;;;;;;;21.93;30.19;100118.91;105625;1254;60453;-48
2023/12/30 10:25:41;;;;;;;25.60;16.50;;;;;;;21.96;30.19;100121.72;105386;1253;65571;-46
2023/12/30 10:28:09;;;;;;;25.30;17.70;;;;;;;22.07;30.15;100120.04;105507;1256;61542;-47
2023/12/30 10:30:36;;;;;;;30.50;20.50;;;;;;;22.23;30.02;100120.83;105420;1254;63738;-48
2023/12/30 10:33:09;;;;;;;24.00;15.80;;;;;;;22.32;29.83;100124.56;105534;1254;60539;-47
2023/12/30 10:35:44;;;;;;;28.50;17.30;;;;;;;22.34;29.81;100124.90;105732;1258;60469;-48
2023/12/30 10:38:13;;;;;;;20.00;13.60;;;;;;;22.30;29.71;100123.98;105409;1254;64897;-48
2023/12/30 10:40:43;;;;;;;21.30;14.00;;;;;;;22.24;29.88;100118.67;105297;1254;61423;-45
2023/12/30 10:43:12;;;;;;;18.70;11.90;;;;;;;22.22;29.98;100115.34;105479;1254;63761;-46
2023/12/30 10:45:40;;;;;;;23.30;14.30;;;;;;;22.23;30.02;100110.60;105277;1253;60531;-47
2023/12/30 10:48:08;;;;;;;29.50;17.20;;;;;;;22.26;30.15;100104.63;105398;1254;60480;-46
2023/12/30 10:50:36;;;;;;;17.40;11.20;;;;;;;22.32;30.06;100100.53;105601;1256;65521;-48
2023/12/30 10:53:11;;;;;;;15.20;10.70;;;;;;;22.39;29.87;100098.14;105585;1259;61289;-49
2023/12/30 10:55:41;;;;;;;19.10;13.10;;;;;;;22.42;29.82;100097.19;105248;1254;63802;-48
2023/12/30 10:58:16;;;;;;;20.80;13.40;;;;;;;22.45;29.76;100092.98;109141;1253;58895;-50
2023/12/30 11:00:43;;;;;;;15.80;11.50;;;;;;;22.44;29.72;100091.98;105362;1254;60539;-47
2023/12/30 11:03:11;;;;;;;15.10;11.20;;;;;;;22.43;29.74;100090.86;105343;1253;64922;-47
2023/12/30 11:06:08;;;;;;;19.40;13.40;;;;;;;22.43;29.73;100092.94;105311;1254;62656;-46
2023/12/30 11:08:36;;;;;;;12.50;4.40;;;;;;;22.41;29.76;100095.98;105826;1254;63721;-48
2023/12/30 11:11:04;;;;;;;16.00;11.90;;;;;;;22.41;29.89;100093.60;106567;1257;61227;-47